Time;durP1;ratioP1;P1;durP2;ratioP2;P2;SDS_P1;SDS_P2;PMS_P1;PMS_P2;Temp;Humidity;BMP_temperature;BMP_pressure;BME280_temperature;BME280_humidity;BME280_pressure;Samples;Min_cycle;Max_cycle;Signal;HPM_P1;HPM_P2
2022/12/03 00:00:07;;;;;;;;;;;4.20;78.00;;;;;;5041551;28;93025;-39
2022/12/03 00:02:33;;;;;;;;;;;4.20;78.00;;;;;;5041574;28;94822;-39
2022/12/03 00:04:58;;;;;;;;;;;4.20;77.70;;;;;;5042276;28;92194;-40
2022/12/03 00:07:24;;;;;;;;;;;4.30;77.90;;;;;;5042403;28;92388;-40
2022/12/03 00:09:49;;;;;;;;;;;4.30;77.60;;;;;;5041245;28;93109;-39
2022/12/03 00:12:15;;;;;;;;;;;4.20;77.70;;;;;;5041977;28;91962;-39
2022/12/03 00:14:40;;;;;;;;;;;4.30;77.60;;;;;;5042061;28;92354;-39
2022/12/03 00:17:06;;;;;;;;;;;4.20;77.80;;;;;;5045177;28;92380;-39
2022/12/03 00:19:31;;;;;;;;;;;4.20;77.80;;;;;;5042212;28;92006;-39
2022/12/03 00:21:57;;;;;;;;;;;4.20;77.70;;;;;;5041273;28;92965;-39
2022/12/03 00:24:22;;;;;;;;;;;4.20;77.90;;;;;;5041076;28;93072;-39
2022/12/03 00:26:48;;;;;;;;;;;4.20;77.80;;;;;;5041755;28;93340;-40
2022/12/03 00:29:13;;;;;;;;;;;4.20;78.00;;;;;;5041186;28;93240;-40
2022/12/03 00:31:40;;;;;;;;;;;4.10;77.90;;;;;;5041661;28;92138;-40
2022/12/03 00:34:06;;;;;;;;;;;4.20;77.80;;;;;;5041587;27;92410;-40
2022/12/03 00:36:31;;;;;;;;;;;4.20;77.80;;;;;;5041227;28;93047;-40
2022/12/03 00:38:57;;;;;;;;;;;4.20;77.80;;;;;;5044784;28;92402;-40
2022/12/03 00:41:22;;;;;;;;;;;4.20;77.80;;;;;;5041402;28;92702;-39
2022/12/03 00:43:48;;;;;;;;;;;4.20;77.60;;;;;;5041657;28;92043;-39
2022/12/03 00:46:13;;;;;;;;;;;4.20;77.90;;;;;;5041270;28;92173;-39
2022/12/03 00:48:39;;;;;;;;;;;4.20;77.90;;;;;;5040277;28;94049;-39
2022/12/03 00:51:04;;;;;;;;;;;4.20;77.80;;;;;;5041507;28;93008;-39
2022/12/03 00:53:30;;;;;;;;;;;4.20;77.90;;;;;;5041145;27;93688;-39
2022/12/03 00:55:55;;;;;;;;;;;4.20;77.90;;;;;;5040913;28;93053;-39
2022/12/03 00:58:21;;;;;;;;;;;4.20;77.60;;;;;;5041146;28;92155;-39
2022/12/03 01:00:46;;;;;;;;;;;4.20;77.80;;;;;;5043978;28;92098;-39
2022/12/03 01:03:12;;;;;;;;;;;4.10;77.80;;;;;;5040442;27;92141;-39
2022/12/03 01:05:37;;;;;;;;;;;4.20;77.80;;;;;;5041783;27;92239;-39
2022/12/03 01:08:03;;;;;;;;;;;4.20;78.10;;;;;;5040371;28;94311;-39
2022/12/03 01:10:28;;;;;;;;;;;4.20;77.80;;;;;;5041208;28;92167;-39
2022/12/03 01:12:54;;;;;;;;;;;4.20;77.70;;;;;;5040161;28;93104;-39
2022/12/03 01:15:19;;;;;;;;;;;4.20;77.80;;;;;;5040583;28;92992;-39
2022/12/03 01:17:45;;;;;;;;;;;4.20;77.90;;;;;;5041012;28;92159;-39
2022/12/03 01:20:11;;;;;;;;;;;4.10;77.70;;;;;;5040942;28;92557;-40
2022/12/03 01:22:36;;;;;;;;;;;4.10;77.90;;;;;;5043402;28;94499;-39
2022/12/03 01:25:02;;;;;;;;;;;4.20;77.90;;;;;;5040874;28;92679;-39
2022/12/03 01:27:28;;;;;;;;;;;4.20;77.70;;;;;;5040166;28;94713;-39
2022/12/03 01:29:53;;;;;;;;;;;4.20;77.90;;;;;;5041327;28;91222;-40
2022/12/03 01:32:19;;;;;;;;;;;4.10;77.80;;;;;;5040865;28;92084;-39
2022/12/03 01:34:45;;;;;;;;;;;4.20;77.90;;;;;;5040392;28;93005;-39
2022/12/03 01:37:11;;;;;;;;;;;4.20;77.80;;;;;;5040055;28;93015;-39
2022/12/03 01:39:36;;;;;;;;;;;4.10;77.80;;;;;;5040417;28;93362;-40
2022/12/03 01:42:02;;;;;;;;;;;4.20;77.70;;;;;;5040161;28;93065;-40
2022/12/03 01:44:29;;;;;;;;;;;4.20;77.90;;;;;;5043330;28;92345;-40
2022/12/03 01:46:56;;;;;;;;;;;4.20;77.70;;;;;;5040022;28;95162;-39
2022/12/03 01:49:26;;;;;;;;;;;4.20;77.70;;;;;;5040524;28;92023;-39
2022/12/03 01:51:52;;;;;;;;;;;4.10;77.70;;;;;;5040243;28;92423;-39
2022/12/03 01:54:19;;;;;;;;;;;4.10;77.90;;;;;;5040332;28;92644;-39
2022/12/03 01:56:45;;;;;;;;;;;4.20;77.70;;;;;;5040304;28;92110;-39
2022/12/03 01:59:18;;;;;;;;;;;4.20;77.70;;;;;;5040319;27;92685;-39
2022/12/03 02:01:44;;;;;;;;;;;4.20;77.60;;;;;;5039052;28;92988;-39
2022/12/03 02:04:11;;;;;;;;;;;4.20;77.60;;;;;;5043441;28;92142;-39
2022/12/03 02:06:37;;;;;;;;;;;4.20;77.60;;;;;;5039584;28;92904;-40
2022/12/03 02:09:03;;;;;;;;;;;4.20;77.60;;;;;;5040327;28;92105;-40
2022/12/03 02:11:33;;;;;;;;;;;4.20;77.70;;;;;;5039954;28;93851;-39
2022/12/03 02:14:01;;;;;;;;;;;4.20;77.70;;;;;;5039243;28;93021;-39
2022/12/03 02:16:27;;;;;;;;;;;4.10;77.80;;;;;;5039939;28;92185;-39
2022/12/03 02:18:52;;;;;;;;;;;4.20;77.70;;;;;;5040228;27;93718;-39
2022/12/03 02:21:30;;;;;;;;;;;4.20;77.70;;;;;;5039534;28;93167;-39
2022/12/03 02:24:01;;;;;;;;;;;4.20;77.50;;;;;;5039820;28;92147;-39
2022/12/03 02:26:26;;;;;;;;;;;4.20;77.60;;;;;;5042189;28;92991;-39
2022/12/03 02:28:52;;;;;;;;;;;4.20;77.80;;;;;;5040012;28;92143;-39
2022/12/03 02:31:17;;;;;;;;;;;4.10;77.80;;;;;;5039933;28;92512;-39
2022/12/03 02:33:43;;;;;;;;;;;4.20;77.70;;;;;;5039410;28;93313;-40
2022/12/03 02:36:09;;;;;;;;;;;4.20;77.60;;;;;;5039672;28;92183;-40
2022/12/03 02:38:34;;;;;;;;;;;4.20;77.80;;;;;;5040011;28;92307;-40
2022/12/03 02:41:02;;;;;;;;;;;4.10;77.50;;;;;;5039184;28;92759;-40
2022/12/03 02:43:28;;;;;;;;;;;4.20;77.60;;;;;;5040114;28;91410;-40
2022/12/03 02:45:55;;;;;;;;;;;4.20;77.60;;;;;;5039418;28;92007;-39
2022/12/03 02:48:26;;;;;;;;;;;4.20;77.70;;;;;;5042201;28;92881;-39
2022/12/03 02:50:53;;;;;;;;;;;4.20;77.60;;;;;;5039251;28;93822;-39
2022/12/03 02:53:26;;;;;;;;;;;4.20;77.40;;;;;;5039256;28;93208;-39
2022/12/03 02:55:52;;;;;;;;;;;4.20;77.50;;;;;;5039295;28;92155;-39
2022/12/03 02:58:19;;;;;;;;;;;4.20;77.40;;;;;;5039738;28;92451;-39
2022/12/03 03:00:45;;;;;;;;;;;4.10;77.50;;;;;;5038811;28;92334;-39
2022/12/03 03:03:11;;;;;;;;;;;4.20;77.50;;;;;;5039355;28;92143;-39
2022/12/03 03:05:38;;;;;;;;;;;4.10;77.40;;;;;;5039609;28;92414;-39
2022/12/03 03:08:05;;;;;;;;;;;4.20;77.50;;;;;;5039455;28;92313;-39
2022/12/03 03:10:32;;;;;;;;;;;4.20;77.60;;;;;;5042383;28;92146;-40
2022/12/03 03:12:57;;;;;;;;;;;4.20;77.50;;;;;;5038684;28;93039;-40
2022/12/03 03:15:24;;;;;;;;;;;4.20;77.50;;;;;;5038537;28;94011;-39
2022/12/03 03:17:49;;;;;;;;;;;4.20;77.40;;;;;;5039064;27;93322;-39
2022/12/03 03:20:15;;;;;;;;;;;4.20;77.50;;;;;;5038607;28;93136;-39
2022/12/03 03:22:41;;;;;;;;;;;4.20;77.40;;;;;;5039276;28;92105;-39
2022/12/03 03:25:11;;;;;;;;;;;4.20;77.30;;;;;;5039874;27;92380;-39
2022/12/03 03:27:37;;;;;;;;;;;4.20;77.20;;;;;;5042309;28;92943;-39
2022/12/03 03:30:03;;;;;;;;;;;4.20;77.40;;;;;;5042916;28;92055;-40
2022/12/03 03:32:29;;;;;;;;;;;4.20;77.40;;;;;;5045347;27;93872;-40
2022/12/03 03:34:55;;;;;;;;;;;4.20;77.40;;;;;;5042635;28;92040;-39
2022/12/03 03:37:21;;;;;;;;;;;4.10;77.50;;;;;;5042632;27;92483;-39
2022/12/03 03:39:46;;;;;;;;;;;4.10;77.50;;;;;;5041411;28;94484;-39
2022/12/03 03:42:12;;;;;;;;;;;4.10;77.50;;;;;;5042450;28;92004;-39
2022/12/03 03:44:37;;;;;;;;;;;4.20;77.50;;;;;;5042089;27;92297;-39
2022/12/03 03:47:03;;;;;;;;;;;4.20;77.30;;;;;;5042103;28;93098;-39
2022/12/03 03:49:29;;;;;;;;;;;4.20;77.30;;;;;;5042337;28;92183;-39
2022/12/03 03:51:54;;;;;;;;;;;4.20;77.40;;;;;;5044962;27;92409;-39
2022/12/03 03:54:20;;;;;;;;;;;4.20;77.30;;;;;;5042540;28;92084;-39
2022/12/03 03:56:46;;;;;;;;;;;4.20;77.30;;;;;;5042692;28;92427;-39
2022/12/03 03:59:12;;;;;;;;;;;4.10;77.40;;;;;;5041914;28;93087;-39
2022/12/03 04:01:37;;;;;;;;;;;4.20;77.40;;;;;;5042110;28;92080;-39
2022/12/03 04:04:04;;;;;;;;;;;4.10;77.40;;;;;;5041541;28;93100;-39
2022/12/03 04:06:29;;;;;;;;;;;4.20;77.40;;;;;;5041708;28;92998;-40
2022/12/03 04:08:55;;;;;;;;;;;4.10;77.30;;;;;;5042225;28;92302;-40
2022/12/03 04:14:04;;;;;;;;;;;4.20;77.30;;;;;;5044514;28;91877;-40
2022/12/03 04:16:30;;;;;;;;;;;4.20;77.30;;;;;;5041915;28;92382;-39
2022/12/03 04:18:55;;;;;;;;;;;4.10;77.20;;;;;;5041479;28;92980;-39
2022/12/03 04:24:07;;;;;;;;;;;4.10;77.50;;;;;;5041944;28;92110;-39
2022/12/03 04:29:33;;;;;;;;;;;4.10;77.40;;;;;;5038249;28;93662;-40
2022/12/03 04:37:27;;;;;;;;;;;4.10;77.30;;;;;;5043519;27;92680;-39
2022/12/03 04:39:52;;;;;;;;;;;4.10;77.40;;;;;;5041062;28;93341;-39
2022/12/03 04:42:18;;;;;;;;;;;4.10;77.20;;;;;;5041781;28;92201;-39
2022/12/03 04:44:43;;;;;;;;;;;4.10;77.40;;;;;;5041154;28;92330;-39
2022/12/03 04:47:10;;;;;;;;;;;4.10;78.10;;;;;;5041656;28;92299;-39
2022/12/03 04:49:37;;;;;;;;;;;4.10;77.90;;;;;;5041605;28;92150;-39
2022/12/03 04:52:03;;;;;;;;;;;4.10;77.20;;;;;;5041432;27;92455;-39
2022/12/03 04:54:29;;;;;;;;;;;4.10;77.40;;;;;;5040186;28;93203;-39
2022/12/03 04:56:54;;;;;;;;;;;4.10;77.50;;;;;;5041410;28;92105;-39
2022/12/03 04:59:20;;;;;;;;;;;4.10;77.50;;;;;;5044268;28;92551;-39
2022/12/03 05:01:45;;;;;;;;;;;4.10;77.50;;;;;;5041199;28;91986;-39
2022/12/03 05:04:12;;;;;;;;;;;4.10;77.40;;;;;;5041418;27;92278;-39
2022/12/03 05:06:37;;;;;;;;;;;4.10;77.20;;;;;;5040523;28;93006;-40
2022/12/03 05:09:03;;;;;;;;;;;4.00;77.30;;;;;;5041194;28;92230;-40
2022/12/03 05:11:29;;;;;;;;;;;4.00;77.40;;;;;;5041512;28;92562;-40
2022/12/03 05:13:54;;;;;;;;;;;4.00;77.40;;;;;;5040430;28;93068;-39
2022/12/03 05:16:20;;;;;;;;;;;4.10;77.40;;;;;;5041179;28;92296;-39
2022/12/03 05:18:45;;;;;;;;;;;4.10;77.30;;;;;;5040615;28;92885;-39
2022/12/03 05:21:11;;;;;;;;;;;4.00;77.30;;;;;;5043145;28;93158;-39
2022/12/03 05:23:36;;;;;;;;;;;4.10;77.30;;;;;;5041001;27;93923;-40
2022/12/03 05:26:02;;;;;;;;;;;4.00;77.50;;;;;;5040582;28;93230;-40
2022/12/03 05:28:28;;;;;;;;;;;4.10;77.30;;;;;;5040824;28;92139;-40
2022/12/03 05:30:53;;;;;;;;;;;4.00;77.40;;;;;;5040961;27;92280;-40
2022/12/03 05:33:19;;;;;;;;;;;4.00;77.30;;;;;;5040155;28;93126;-39
2022/12/03 05:35:45;;;;;;;;;;;4.10;77.30;;;;;;5041018;28;91775;-39
2022/12/03 05:38:10;;;;;;;;;;;4.10;77.40;;;;;;5040492;27;92970;-39
2022/12/03 05:40:36;;;;;;;;;;;4.00;77.20;;;;;;5040103;28;93173;-39
2022/12/03 05:43:01;;;;;;;;;;;4.00;77.40;;;;;;5043186;28;93485;-40
2022/12/03 05:45:31;;;;;;;;;;;4.00;77.40;;;;;;5039588;28;93197;-39
2022/12/03 05:47:57;;;;;;;;;;;4.00;77.40;;;;;;5039987;27;92132;-39
2022/12/03 05:50:24;;;;;;;;;;;4.00;77.40;;;;;;5040593;27;92411;-40
2022/12/03 05:52:50;;;;;;;;;;;4.00;77.40;;;;;;5039691;28;93297;-40
2022/12/03 05:55:16;;;;;;;;;;;4.00;77.60;;;;;;5040708;28;91942;-40
2022/12/03 05:57:41;;;;;;;;;;;4.00;77.40;;;;;;5040557;28;91979;-39
2022/12/03 06:00:10;;;;;;;;;;;4.00;77.50;;;;;;5040446;28;92478;-39
2022/12/03 06:02:36;;;;;;;;;;;4.00;77.40;;;;;;5043152;28;92211;-39
2022/12/03 06:05:01;;;;;;;;;;;3.90;77.40;;;;;;5039489;28;93197;-40
2022/12/03 06:07:27;;;;;;;;;;;4.00;77.40;;;;;;5039651;28;93096;-40
2022/12/03 06:09:52;;;;;;;;;;;4.00;77.50;;;;;;5040174;28;93294;-40
2022/12/03 06:12:18;;;;;;;;;;;4.00;77.40;;;;;;5039839;28;93130;-40
2022/12/03 06:14:43;;;;;;;;;;;4.00;77.50;;;;;;5039954;28;92216;-40
2022/12/03 06:17:09;;;;;;;;;;;4.00;77.50;;;;;;5040191;28;92423;-40
2022/12/03 06:19:34;;;;;;;;;;;4.00;77.50;;;;;;5039494;28;93052;-39
2022/12/03 06:22:00;;;;;;;;;;;3.90;77.30;;;;;;5039307;28;92107;-39
2022/12/03 06:24:25;;;;;;;;;;;4.00;77.40;;;;;;5042910;27;93878;-39
2022/12/03 06:26:51;;;;;;;;;;;3.90;77.40;;;;;;5039843;28;92194;-39
2022/12/03 06:29:16;;;;;;;;;;;4.00;77.40;;;;;;5040189;28;92376;-39
2022/12/03 06:31:42;;;;;;;;;;;3.90;77.40;;;;;;5038546;28;94067;-39
2022/12/03 06:34:07;;;;;;;;;;;4.00;77.30;;;;;;5039721;28;92131;-39
2022/12/03 06:36:33;;;;;;;;;;;3.90;77.30;;;;;;5039679;28;92540;-39
2022/12/03 06:38:58;;;;;;;;;;;3.90;77.50;;;;;;5039336;28;93013;-39
2022/12/03 06:41:24;;;;;;;;;;;3.90;77.60;;;;;;5039702;28;92298;-40
2022/12/03 06:43:49;;;;;;;;;;;3.90;77.40;;;;;;5040027;28;92239;-40
2022/12/03 06:46:15;;;;;;;;;;;3.90;77.50;;;;;;5042146;28;93564;-39
2022/12/03 06:48:40;;;;;;;;;;;3.90;77.60;;;;;;5040162;28;91553;-39
2022/12/03 06:51:06;;;;;;;;;;;3.80;77.70;;;;;;5039074;28;93112;-39
2022/12/03 06:53:31;;;;;;;;;;;3.90;77.80;;;;;;5039632;28;92183;-39
2022/12/03 06:55:57;;;;;;;;;;;3.90;77.60;;;;;;5039020;28;93048;-39
2022/12/03 06:58:22;;;;;;;;;;;3.90;77.70;;;;;;5039078;28;93283;-39
2022/12/03 07:00:47;;;;;;;;;;;3.90;77.70;;;;;;5038529;28;92024;-39
2022/12/03 07:03:13;;;;;;;;;;;4.00;77.50;;;;;;5039646;28;92294;-39
2022/12/03 07:05:39;;;;;;;;;;;3.90;77.40;;;;;;5038664;28;92918;-39
2022/12/03 07:08:04;;;;;;;;;;;3.90;77.50;;;;;;5042524;28;92135;-39
2022/12/03 07:10:30;;;;;;;;;;;3.80;77.70;;;;;;5038636;28;94101;-39
2022/12/03 07:12:56;;;;;;;;;;;3.80;77.70;;;;;;5039844;28;91617;-39
2022/12/03 07:15:21;;;;;;;;;;;3.80;78.00;;;;;;5039233;28;91923;-39
2022/12/03 07:17:47;;;;;;;;;;;3.80;77.90;;;;;;5038506;28;94515;-39
2022/12/03 07:20:12;;;;;;;;;;;3.80;77.60;;;;;;5038588;28;93476;-39
2022/12/03 07:22:38;;;;;;;;;;;3.90;77.50;;;;;;5038987;28;93258;-39
2022/12/03 07:25:04;;;;;;;;;;;3.90;77.70;;;;;;5038622;28;92332;-39
2022/12/03 07:27:29;;;;;;;;;;;3.80;77.60;;;;;;5039007;28;92138;-39
2022/12/03 07:29:55;;;;;;;;;;;3.80;77.70;;;;;;5041794;28;92481;-39
2022/12/03 07:32:20;;;;;;;;;;;3.80;77.70;;;;;;5039155;28;92194;-39
2022/12/03 07:34:46;;;;;;;;;;;3.80;77.90;;;;;;5039041;28;92563;-39
2022/12/03 07:37:11;;;;;;;;;;;3.80;77.80;;;;;;5038732;28;92349;-40
2022/12/03 07:39:37;;;;;;;;;;;3.80;77.60;;;;;;5039103;28;92255;-40
2022/12/03 07:42:02;;;;;;;;;;;3.80;77.60;;;;;;5039041;28;92321;-40
2022/12/03 07:44:30;;;;;;;;;;;3.80;77.60;;;;;;5037301;28;94198;-40
2022/12/03 07:46:56;;;;;;;;;;;3.80;77.70;;;;;;5039229;28;91948;-39
2022/12/03 07:49:21;;;;;;;;;;;3.80;77.70;;;;;;5038960;27;92429;-40
2022/12/03 07:51:52;;;;;;;;;;;3.80;77.80;;;;;;5041264;28;93112;-39
2022/12/03 07:54:21;;;;;;;;;;;3.80;77.80;;;;;;5038759;27;93999;-39
2022/12/03 07:56:47;;;;;;;;;;;3.80;77.80;;;;;;5038376;28;93178;-39
2022/12/03 07:59:13;;;;;;;;;;;3.80;77.90;;;;;;5038835;28;92138;-39
2022/12/03 08:01:53;;;;;;;;;;;3.80;77.80;;;;;;5026172;27;91619;-40
2022/12/03 08:04:20;;;;;;;;;;;3.80;77.70;;;;;;5038040;28;93530;-39
2022/12/03 08:06:45;;;;;;;;;;;3.80;77.70;;;;;;5038021;28;92214;-39
2022/12/03 08:09:11;;;;;;;;;;;3.80;77.80;;;;;;5037943;28;92939;-39
2022/12/03 08:11:36;;;;;;;;;;;3.80;77.90;;;;;;5042246;28;93232;-39
2022/12/03 08:14:12;;;;;;;;;;;3.80;77.80;;;;;;5041976;28;92439;-39
2022/12/03 08:16:38;;;;;;;;;;;3.80;77.80;;;;;;5041501;28;93522;-39
2022/12/03 08:19:04;;;;;;;;;;;3.80;77.80;;;;;;5041989;28;92249;-39
2022/12/03 08:21:33;;;;;;;;;;;3.80;77.60;;;;;;5041883;27;92458;-39
2022/12/03 08:24:04;;;;;;;;;;;3.80;77.70;;;;;;5041377;28;93153;-39
2022/12/03 08:26:29;;;;;;;;;;;3.80;77.80;;;;;;5042445;28;91272;-39
2022/12/03 08:28:55;;;;;;;;;;;3.80;77.70;;;;;;5042080;28;92028;-39
2022/12/03 08:31:24;;;;;;;;;;;3.80;77.60;;;;;;5041204;28;93204;-39
2022/12/03 08:34:09;;;;;;;;;;;3.80;77.80;;;;;;5044204;28;93003;-40
2022/12/03 08:36:35;;;;;;;;;;;3.80;77.80;;;;;;5041084;27;93072;-39
2022/12/03 08:39:23;;;;;;;;;;;3.80;77.80;;;;;;5041561;28;92127;-39
2022/12/03 08:44:37;;;;;;;;;;;3.90;77.50;;;;;;5040835;28;92288;-39
2022/12/03 08:47:08;;;;;;;;;;;3.90;77.80;;;;;;5041299;28;92134;-39
2022/12/03 08:49:38;;;;;;;;;;;3.90;78.00;;;;;;5041514;27;93863;-40
2022/12/03 08:52:15;;;;;;;;;;;3.90;77.90;;;;;;5041604;28;91486;-40
2022/12/03 08:54:41;;;;;;;;;;;3.90;77.80;;;;;;5041209;28;92057;-40
2022/12/03 08:57:25;;;;;;;;;;;4.00;77.90;;;;;;5044142;27;92144;-39
2022/12/03 08:59:53;;;;;;;;;;;3.90;77.60;;;;;;5040833;27;93203;-39
2022/12/03 09:02:25;;;;;;;;;;;3.90;77.70;;;;;;5040863;27;95538;-39
2022/12/03 09:04:53;;;;;;;;;;;3.90;78.10;;;;;;5040876;28;93142;-39
2022/12/03 09:07:18;;;;;;;;;;;3.90;77.80;;;;;;5041037;28;92118;-39
2022/12/03 09:09:44;;;;;;;;;;;3.90;77.90;;;;;;5041332;28;92335;-39
2022/12/03 09:12:09;;;;;;;;;;;3.90;77.70;;;;;;5040670;28;93039;-40
2022/12/03 09:14:35;;;;;;;;;;;3.90;77.60;;;;;;5039385;28;92390;-39
2022/12/03 09:17:00;;;;;;;;;;;4.00;77.70;;;;;;5041900;28;92383;-40
2022/12/03 09:19:26;;;;;;;;;;;4.00;77.70;;;;;;5043381;28;92461;-39
2022/12/03 09:21:53;;;;;;;;;;;4.00;77.80;;;;;;5040622;28;93998;-39
2022/12/03 09:24:18;;;;;;;;;;;4.00;77.90;;;;;;5038611;27;95119;-39
2022/12/03 09:26:44;;;;;;;;;;;4.00;77.70;;;;;;5041178;28;92272;-39
2022/12/03 09:29:10;;;;;;;;;;;4.10;77.50;;;;;;5041039;27;92384;-39
2022/12/03 09:31:35;;;;;;;;;;;4.00;77.40;;;;;;5040254;27;94263;-39
2022/12/03 09:34:01;;;;;;;;;;;4.00;77.60;;;;;;5040453;28;92078;-39
2022/12/03 09:36:27;;;;;;;;;;;4.00;77.50;;;;;;5040745;27;92297;-40
2022/12/03 09:38:52;;;;;;;;;;;4.00;77.60;;;;;;5040161;28;92983;-40
2022/12/03 09:41:18;;;;;;;;;;;4.00;77.70;;;;;;5044090;28;91452;-39
2022/12/03 09:43:44;;;;;;;;;;;4.00;77.70;;;;;;5040232;28;93074;-39
2022/12/03 09:46:09;;;;;;;;;;;4.00;78.00;;;;;;5040436;28;92189;-39
2022/12/03 09:48:35;;;;;;;;;;;4.00;77.80;;;;;;5040122;27;93350;-40
2022/12/03 09:51:01;;;;;;;;;;;4.10;77.80;;;;;;5040064;28;92955;-39
2022/12/03 09:53:27;;;;;;;;;;;4.00;77.80;;;;;;5040529;28;92206;-39
2022/12/03 09:55:52;;;;;;;;;;;4.10;77.90;;;;;;5040298;27;93636;-39
2022/12/03 09:58:18;;;;;;;;;;;4.10;77.60;;;;;;5039901;28;93476;-39
2022/12/03 10:00:48;;;;;;;;;;;4.00;77.70;;;;;;5040283;28;92199;-40
2022/12/03 10:03:15;;;;;;;;;;;3.90;78.10;;;;;;5042856;28;92361;-39
2022/12/03 10:05:41;;;;;;;;;;;3.90;78.10;;;;;;5040676;28;91468;-40
2022/12/03 10:08:07;;;;;;;;;;;4.00;78.00;;;;;;5040230;27;92023;-39
2022/12/03 10:10:33;;;;;;;;;;;3.90;78.30;;;;;;5039606;28;92937;-39
2022/12/03 10:12:59;;;;;;;;;;;3.90;78.60;;;;;;5039680;28;93082;-39
2022/12/03 10:15:25;;;;;;;;;;;3.90;78.70;;;;;;5040105;28;93204;-39
2022/12/03 10:17:51;;;;;;;;;;;3.90;78.70;;;;;;5039616;28;92291;-39
2022/12/03 10:20:18;;;;;;;;;;;3.90;78.80;;;;;;5039883;28;92247;-39
2022/12/03 10:22:44;;;;;;;;;;;3.90;78.70;;;;;;5042685;27;92315;-39
2022/12/03 10:25:11;;;;;;;;;;;3.80;79.00;;;;;;5039826;28;92134;-39
2022/12/03 10:27:37;;;;;;;;;;;3.80;79.30;;;;;;5039994;27;92336;-39
2022/12/03 10:30:05;;;;;;;;;;;3.80;79.20;;;;;;5039943;28;93788;-39
2022/12/03 10:32:47;;;;;;;;;;;3.80;79.40;;;;;;5039615;28;92123;-39
2022/12/03 10:35:18;;;;;;;;;;;3.80;79.40;;;;;;5039582;27;93559;-39
2022/12/03 10:38:03;;;;;;;;;;;3.80;79.50;;;;;;5038516;28;95797;-39
2022/12/03 10:40:36;;;;;;;;;;;3.80;79.60;;;;;;5039045;28;92177;-39
2022/12/03 10:43:19;;;;;;;;;;;3.80;79.60;;;;;;5039649;27;92569;-39
2022/12/03 10:45:47;;;;;;;;;;;3.80;79.60;;;;;;5042009;28;92801;-39
2022/12/03 10:48:20;;;;;;;;;;;3.80;79.50;;;;;;5039858;28;92348;-39
2022/12/03 10:50:48;;;;;;;;;;;3.80;79.60;;;;;;5038821;28;94479;-39
2022/12/03 10:53:14;;;;;;;;;;;3.80;79.70;;;;;;5039297;28;92040;-39
2022/12/03 10:55:40;;;;;;;;;;;3.80;79.70;;;;;;5039813;28;92379;-39
2022/12/03 10:58:12;;;;;;;;;;;3.80;79.80;;;;;;5039049;28;93331;-39
2022/12/03 11:00:38;;;;;;;;;;;3.80;80.00;;;;;;5039648;28;92016;-39
2022/12/03 11:03:05;;;;;;;;;;;3.90;79.90;;;;;;5038990;28;92978;-39
2022/12/03 11:05:30;;;;;;;;;;;3.90;80.00;;;;;;5038831;28;93257;-39
2022/12/03 11:07:56;;;;;;;;;;;3.90;80.20;;;;;;5042563;28;92399;-39
2022/12/03 11:10:21;;;;;;;;;;;3.90;80.00;;;;;;5038581;28;93047;-39
2022/12/03 11:13:06;;;;;;;;;;;3.90;80.20;;;;;;5039397;28;92090;-39
2022/12/03 11:15:42;;;;;;;;;;;3.90;80.20;;;;;;5039456;27;92225;-39
2022/12/03 11:18:08;;;;;;;;;;;3.90;80.40;;;;;;5038677;28;94295;-39
2022/12/03 11:20:33;;;;;;;;;;;3.90;80.60;;;;;;5039894;28;91336;-39
2022/12/03 11:22:59;;;;;;;;;;;3.90;80.80;;;;;;5038963;28;92281;-39
2022/12/03 11:25:24;;;;;;;;;;;3.90;80.80;;;;;;5038661;28;93310;-39
2022/12/03 11:28:08;;;;;;;;;;;3.90;80.70;;;;;;5038597;28;93184;-39
2022/12/03 11:30:52;;;;;;;;;;;3.90;80.90;;;;;;5041814;27;93291;-39
2022/12/03 11:33:25;;;;;;;;;;;3.90;80.80;;;;;;5038865;28;92142;-39
2022/12/03 11:36:03;;;;;;;;;;;3.90;80.90;;;;;;5039011;28;92416;-39
2022/12/03 11:38:39;;;;;;;;;;;3.90;81.00;;;;;;5038435;28;93006;-39
2022/12/03 11:41:06;;;;;;;;;;;3.90;81.00;;;;;;5038874;28;92307;-40
2022/12/03 11:43:50;;;;;;;;;;;3.90;80.90;;;;;;5039082;28;92140;-40
2022/12/03 11:46:15;;;;;;;;;;;3.90;81.00;;;;;;5039566;27;92286;-39
2022/12/03 11:48:44;;;;;;;;;;;3.90;81.00;;;;;;5042499;28;92227;-39
2022/12/03 11:51:14;;;;;;;;;;;3.90;81.10;;;;;;5042511;27;92603;-39
2022/12/03 11:53:40;;;;;;;;;;;3.90;81.20;;;;;;5044325;28;94152;-39
2022/12/03 11:56:07;;;;;;;;;;;3.90;81.10;;;;;;5042472;27;93222;-39
2022/12/03 11:58:37;;;;;;;;;;;4.00;81.30;;;;;;5041712;28;93253;-39
2022/12/03 12:01:05;;;;;;;;;;;3.90;81.40;;;;;;5041930;28;92135;-39
2022/12/03 12:03:31;;;;;;;;;;;3.90;81.30;;;;;;5042265;27;92201;-39
2022/12/03 12:06:02;;;;;;;;;;;3.90;81.40;;;;;;5041625;28;93016;-40
2022/12/03 12:08:28;;;;;;;;;;;3.90;81.30;;;;;;5041902;28;92149;-39
2022/12/03 12:10:53;;;;;;;;;;;4.00;81.30;;;;;;5042467;28;92476;-39
2022/12/03 12:13:31;;;;;;;;;;;4.00;81.30;;;;;;5041593;28;93445;-39
2022/12/03 12:16:04;;;;;;;;;;;4.00;81.40;;;;;;5044804;27;92475;-39
2022/12/03 12:18:37;;;;;;;;;;;4.00;81.50;;;;;;5040598;28;95589;-39
2022/12/03 12:21:22;;;;;;;;;;;4.00;81.50;;;;;;5041966;28;92330;-39
2022/12/03 12:23:47;;;;;;;;;;;4.00;81.40;;;;;;5042120;27;92425;-39
2022/12/03 12:26:13;;;;;;;;;;;4.00;81.50;;;;;;5041635;28;93097;-39
2022/12/03 12:28:38;;;;;;;;;;;4.00;81.40;;;;;;5041925;28;92145;-39
2022/12/03 12:31:09;;;;;;;;;;;4.00;81.60;;;;;;5041877;28;92460;-39
2022/12/03 12:33:34;;;;;;;;;;;4.00;81.60;;;;;;5041357;28;93228;-39
2022/12/03 12:36:04;;;;;;;;;;;4.00;81.60;;;;;;5045109;28;91381;-40
2022/12/03 12:38:29;;;;;;;;;;;4.10;81.50;;;;;;5041038;28;92828;-40
2022/12/03 12:40:55;;;;;;;;;;;4.10;81.60;;;;;;5041652;28;92085;-39
2022/12/03 12:43:23;;;;;;;;;;;4.10;81.70;;;;;;5041135;28;92810;-39
2022/12/03 12:45:49;;;;;;;;;;;4.10;81.60;;;;;;5040606;28;93006;-39
2022/12/03 12:48:23;;;;;;;;;;;4.10;81.60;;;;;;5041540;28;92135;-39
2022/12/03 12:50:57;;;;;;;;;;;4.10;81.70;;;;;;5041371;28;92489;-39
2022/12/03 12:53:23;;;;;;;;;;;4.10;81.60;;;;;;5040709;28;94169;-39
2022/12/03 12:55:59;;;;;;;;;;;4.10;81.70;;;;;;5041400;28;92151;-39
2022/12/03 12:58:25;;;;;;;;;;;4.10;81.70;;;;;;5042859;27;92407;-39
2022/12/03 13:00:54;;;;;;;;;;;4.10;81.60;;;;;;5041674;28;91420;-40
2022/12/03 13:03:21;;;;;;;;;;;4.10;81.70;;;;;;5041161;27;92387;-39
2022/12/03 13:05:48;;;;;;;;;;;4.10;81.60;;;;;;5040525;28;94217;-39
2022/12/03 13:08:13;;;;;;;;;;;4.10;81.70;;;;;;5040853;28;93088;-39
2022/12/03 13:10:40;;;;;;;;;;;4.10;81.70;;;;;;5041261;28;92456;-39
2022/12/03 13:13:14;;;;;;;;;;;4.10;81.70;;;;;;5040628;28;93227;-39
2022/12/03 13:15:48;;;;;;;;;;;4.20;81.70;;;;;;5040751;28;92244;-39
2022/12/03 13:18:22;;;;;;;;;;;4.20;81.70;;;;;;5041078;27;93760;-40
2022/12/03 13:20:48;;;;;;;;;;;4.20;81.70;;;;;;5043183;28;94424;-40
2022/12/03 13:23:28;;;;;;;;;;;4.20;81.80;;;;;;5041223;28;92334;-39
2022/12/03 13:25:53;;;;;;;;;;;4.20;81.70;;;;;;5040761;28;92577;-39
2022/12/03 13:28:19;;;;;;;;;;;4.20;81.80;;;;;;5040906;28;92013;-39
2022/12/03 13:30:44;;;;;;;;;;;4.20;81.90;;;;;;5040916;28;92506;-39
2022/12/03 13:33:18;;;;;;;;;;;4.20;81.80;;;;;;5039537;28;94240;-39
2022/12/03 13:35:45;;;;;;;;;;;4.20;81.70;;;;;;5041049;28;92165;-39
2022/12/03 13:38:15;;;;;;;;;;;4.30;81.70;;;;;;5040573;27;93650;-39
2022/12/03 13:40:41;;;;;;;;;;;4.30;81.80;;;;;;5040298;28;92934;-39
2022/12/03 13:43:11;;;;;;;;;;;4.30;81.80;;;;;;5043659;28;92225;-39
2022/12/03 13:45:37;;;;;;;;;;;4.30;81.90;;;;;;5039168;28;94417;-39
2022/12/03 13:48:13;;;;;;;;;;;4.30;82.00;;;;;;5040272;28;92156;-40
2022/12/03 13:50:43;;;;;;;;;;;4.30;82.10;;;;;;5041024;27;92318;-40
2022/12/03 13:53:17;;;;;;;;;;;4.30;82.00;;;;;;5039868;28;93045;-40
2022/12/03 13:55:45;;;;;;;;;;;4.30;82.10;;;;;;5040499;28;92093;-39
2022/12/03 13:58:11;;;;;;;;;;;4.30;82.00;;;;;;5039720;28;92941;-39
2022/12/03 14:00:36;;;;;;;;;;;4.30;82.00;;;;;;5039856;28;93080;-39
2022/12/03 14:03:02;;;;;;;;;;;4.30;82.00;;;;;;5040223;28;92050;-41
2022/12/03 14:05:28;;;;;;;;;;;4.30;82.00;;;;;;5042915;27;92402;-40
2022/12/03 14:07:56;;;;;;;;;;;4.30;81.90;;;;;;5040156;28;92001;-40
2022/12/03 14:10:22;;;;;;;;;;;4.30;82.00;;;;;;5039775;27;92592;-40
2022/12/03 14:12:47;;;;;;;;;;;4.30;82.00;;;;;;5039844;28;93149;-40
2022/12/03 14:15:13;;;;;;;;;;;4.30;81.90;;;;;;5040554;28;91511;-40
2022/12/03 14:17:38;;;;;;;;;;;4.30;82.10;;;;;;5040442;28;91990;-40
2022/12/03 14:20:04;;;;;;;;;;;4.30;82.00;;;;;;5039675;28;93179;-40
2022/12/03 14:22:30;;;;;;;;;;;4.40;81.50;;;;;;5039505;28;93078;-40
2022/12/03 14:24:55;;;;;;;;;;;4.50;81.40;;;;;;5042461;27;93253;-40
2022/12/03 14:27:21;;;;;;;;;;;4.50;81.30;;;;;;5039954;28;92163;-40
2022/12/03 14:29:46;;;;;;;;;;;4.40;81.40;;;;;;5039935;27;92492;-41
2022/12/03 14:32:12;;;;;;;;;;;4.40;81.70;;;;;;5039654;28;93043;-40
2022/12/03 14:34:38;;;;;;;;;;;4.40;81.70;;;;;;5040025;28;92095;-40
2022/12/03 14:37:03;;;;;;;;;;;4.40;81.40;;;;;;5039935;27;92680;-40
2022/12/03 14:39:29;;;;;;;;;;;4.50;81.10;;;;;;5039632;28;91525;-40
2022/12/03 14:42:12;;;;;;;;;;;4.70;80.40;;;;;;5039626;28;92146;-40
2022/12/03 14:44:38;;;;;;;;;;;4.70;80.20;;;;;;5039235;28;92467;-40
2022/12/03 14:47:04;;;;;;;;;;;4.80;79.70;;;;;;5041770;28;93821;-40